createdAt,value
2022-12-23T00:01:27.989Z,25.13
2022-12-23T00:03:59.361Z,24.33
2022-12-23T00:06:28.080Z,24.23
2022-12-23T00:08:58.451Z,23.98
2022-12-23T00:11:30.639Z,25.40
2022-12-23T00:14:20.955Z,24.63
2022-12-23T00:16:51.546Z,26.42
2022-12-23T00:19:20.233Z,24.30
2022-12-23T00:21:49.147Z,22.42
2022-12-23T00:24:17.298Z,25.40
2022-12-23T00:26:45.370Z,25.08
2022-12-23T00:29:13.457Z,24.75
2022-12-23T00:31:41.716Z,24.15
2022-12-23T00:34:12.999Z,24.65
2022-12-23T00:36:41.271Z,23.77
2022-12-23T00:39:30.399Z,22.63
2022-12-23T00:42:15.996Z,21.45
2022-12-23T00:44:44.239Z,23.38
2022-12-23T00:47:32.363Z,24.58
2022-12-23T00:50:07.991Z,21.38
2022-12-23T00:52:36.123Z,25.02
2022-12-23T00:55:04.271Z,24.80
2022-12-23T00:57:32.460Z,23.27
2022-12-23T01:00:03.634Z,22.98
2022-12-23T01:02:49.880Z,22.63
2022-12-23T01:05:37.711Z,21.73
2022-12-23T01:08:07.166Z,19.48
2022-12-23T01:10:35.837Z,20.65
2022-12-23T01:13:04.140Z,22.48
2022-12-23T01:15:32.667Z,21.40
2022-12-23T01:18:00.824Z,23.05
2022-12-23T01:20:30.419Z,23.40
2022-12-23T01:22:58.517Z,20.42
2022-12-23T01:25:26.787Z,21.50
2022-12-23T01:27:54.853Z,21.63
2022-12-23T01:30:25.790Z,21.42
2022-12-23T01:32:53.823Z,21.48
2022-12-23T01:35:21.964Z,20.50
2022-12-23T01:37:51.584Z,21.05
2022-12-23T01:40:19.807Z,21.35
2022-12-23T01:42:47.487Z,21.40
2022-12-23T01:45:18.828Z,22.00
2022-12-23T01:47:51.383Z,19.05
2022-12-23T01:50:25.215Z,20.80
2022-12-23T01:53:06.953Z,20.25
2022-12-23T01:55:46.232Z,21.35
2022-12-23T01:58:18.420Z,24.35
2022-12-23T02:01:03.963Z,20.25
2022-12-23T02:03:44.626Z,18.95
2022-12-23T02:06:37.012Z,21.52
2022-12-23T02:09:19.230Z,19.95
2022-12-23T02:12:22.456Z,20.33
2022-12-23T02:15:23.696Z,22.23
2022-12-23T02:18:01.759Z,23.23
2022-12-23T02:20:58.470Z,19.23
2022-12-23T02:24:14.783Z,20.88
2022-12-23T02:27:06.320Z,22.08
2022-12-23T02:30:07.007Z,20.58
2022-12-23T02:32:51.374Z,21.23
2022-12-23T02:35:27.419Z,20.73
2022-12-23T02:38:03.081Z,20.23
2022-12-23T02:40:40.477Z,24.80
2022-12-23T02:43:18.476Z,20.10
2022-12-23T02:45:52.231Z,19.80
2022-12-23T02:48:28.683Z,20.98
2022-12-23T02:50:58.946Z,22.45
2022-12-23T02:53:31.945Z,20.90
2022-12-23T02:56:02.117Z,23.20
2022-12-23T02:58:35.013Z,24.88
2022-12-23T03:01:04.970Z,23.15
2022-12-23T03:03:36.683Z,23.70
2022-12-23T03:06:15.106Z,21.88
2022-12-23T03:08:45.582Z,23.83
2022-12-23T03:11:15.878Z,26.30
2022-12-23T03:14:00.826Z,27.90
2022-12-23T03:16:36.614Z,24.48
2022-12-23T03:19:15.598Z,23.25
2022-12-23T03:21:47.048Z,26.25
2022-12-23T03:24:23.354Z,26.33
2022-12-23T03:26:58.768Z,28.60
2022-12-23T03:29:33.552Z,25.10
2022-12-23T03:32:04.734Z,26.55
2022-12-23T03:34:40.207Z,27.73
2022-12-23T03:37:11.894Z,27.73
2022-12-23T03:39:44.497Z,25.90
2022-12-23T03:42:19.627Z,26.47
2022-12-23T03:45:28.045Z,29.98
2022-12-23T03:47:47.893Z,26.88
2022-12-23T03:50:20.579Z,26.50
2022-12-23T03:52:53.962Z,27.85
2022-12-23T03:55:26.779Z,28.55
2022-12-23T03:58:10.635Z,27.60
2022-12-23T04:00:49.389Z,27.85
2022-12-23T04:03:26.974Z,28.30
2022-12-23T04:06:00.933Z,28.75
2022-12-23T04:08:33.872Z,28.23
2022-12-23T04:11:03.000Z,27.48
2022-12-23T04:13:32.113Z,27.40
2022-12-23T04:16:00.982Z,27.85
2022-12-23T04:18:29.850Z,30.58
2022-12-23T04:20:59.627Z,28.75
2022-12-23T04:23:27.757Z,27.70
2022-12-23T04:25:55.916Z,29.23
2022-12-23T04:28:23.987Z,27.05
2022-12-23T04:30:52.133Z,30.63
2022-12-23T04:33:20.269Z,32.85
2022-12-23T04:35:48.382Z,31.02
2022-12-23T04:38:17.878Z,28.35
2022-12-23T04:40:46.983Z,30.35
2022-12-23T04:43:15.975Z,27.90
2022-12-23T04:45:44.004Z,27.77
2022-12-23T04:48:12.012Z,31.45
2022-12-23T04:50:40.598Z,27.05
2022-12-23T04:53:08.787Z,29.30
2022-12-23T04:55:38.278Z,26.50
2022-12-23T04:58:06.922Z,28.40
2022-12-23T05:00:39.577Z,27.63
2022-12-23T05:03:08.298Z,27.98
2022-12-23T05:05:36.527Z,27.63
2022-12-23T05:08:06.072Z,29.52
2022-12-23T05:10:34.191Z,26.80
2022-12-23T05:13:03.724Z,25.85
2022-12-23T05:15:33.122Z,26.45
2022-12-23T05:18:01.555Z,27.08
2022-12-23T05:20:31.404Z,25.33
2022-12-23T05:22:59.594Z,25.70
2022-12-23T05:25:27.703Z,24.45
2022-12-23T05:27:55.910Z,24.52
2022-12-23T05:30:29.418Z,24.65
2022-12-23T05:32:58.399Z,26.00
2022-12-23T05:35:27.722Z,24.70
2022-12-23T05:37:57.777Z,26.88
2022-12-23T05:40:30.159Z,24.63
2022-12-23T05:43:00.561Z,23.77
2022-12-23T05:45:30.095Z,25.55
2022-12-23T05:47:58.199Z,23.17
2022-12-23T05:50:26.521Z,24.50
2022-12-23T05:52:55.909Z,25.50
2022-12-23T05:55:24.304Z,23.55
2022-12-23T05:57:52.746Z,22.92
2022-12-23T06:00:21.757Z,22.63
2022-12-23T06:02:53.945Z,22.17
2022-12-23T06:05:22.944Z,23.45
2022-12-23T06:07:51.042Z,22.50
2022-12-23T06:10:20.343Z,21.67
2022-12-23T06:12:48.467Z,22.20
2022-12-23T06:15:16.688Z,21.73
2022-12-23T06:17:44.863Z,20.95
2022-12-23T06:20:20.390Z,20.85
2022-12-23T06:22:49.275Z,20.67
2022-12-23T06:25:17.609Z,22.90
2022-12-23T06:27:45.723Z,20.08
2022-12-23T06:30:16.297Z,20.63
2022-12-23T06:32:44.657Z,18.67
2022-12-23T06:35:13.436Z,22.73
2022-12-23T06:37:42.876Z,23.85
2022-12-23T06:40:14.664Z,22.90
2022-12-23T06:42:42.795Z,23.02
2022-12-23T06:45:11.973Z,22.10
2022-12-23T06:47:40.092Z,19.42
2022-12-23T06:50:10.062Z,21.50
2022-12-23T06:52:38.599Z,21.45
2022-12-23T06:55:08.983Z,22.40
2022-12-23T06:57:37.657Z,20.13
2022-12-23T07:00:08.747Z,19.67
2022-12-23T07:02:37.512Z,20.73
2022-12-23T07:05:06.238Z,19.98
2022-12-23T07:07:34.607Z,18.58
2022-12-23T07:10:04.938Z,19.45
2022-12-23T07:12:35.097Z,18.98
2022-12-23T07:15:03.378Z,21.40
2022-12-23T07:17:31.626Z,21.95
2022-12-23T07:19:59.849Z,19.17
2022-12-23T07:22:28.313Z,21.23
2022-12-23T07:24:56.460Z,20.92
2022-12-23T07:27:24.599Z,19.77
2022-12-23T07:29:54.170Z,19.83
2022-12-23T07:32:22.409Z,19.67
2022-12-23T07:34:50.855Z,18.30
2022-12-23T07:37:19.119Z,18.23
2022-12-23T07:39:48.960Z,19.42
2022-12-23T07:42:43.366Z,19.67
2022-12-23T07:45:07.956Z,20.98
2022-12-23T07:47:36.089Z,21.13
2022-12-23T07:50:04.380Z,19.20
2022-12-23T07:52:32.453Z,19.67
2022-12-23T07:55:00.587Z,18.50
2022-12-23T07:57:29.348Z,17.83
2022-12-23T08:00:00.703Z,21.10
2022-12-23T08:02:30.271Z,18.95
2022-12-23T08:04:58.557Z,20.83
2022-12-23T08:07:26.723Z,18.23
2022-12-23T08:09:54.911Z,19.58
2022-12-23T08:12:23.051Z,21.38
2022-12-23T08:14:52.674Z,20.13
2022-12-23T08:17:22.019Z,19.83
2022-12-23T08:19:51.658Z,20.10
2022-12-23T08:22:19.800Z,22.20
2022-12-23T08:24:47.895Z,21.35
2022-12-23T08:27:16.331Z,23.75
2022-12-23T08:29:47.515Z,21.67
2022-12-23T08:32:15.614Z,18.38
2022-12-23T08:34:43.754Z,17.75
2022-12-23T08:37:13.246Z,16.65
2022-12-23T08:39:42.276Z,21.48
2022-12-23T08:42:10.360Z,18.40
2022-12-23T08:44:38.465Z,19.50
2022-12-23T08:47:06.600Z,17.48
2022-12-23T08:49:34.688Z,17.85
2022-12-23T08:52:03.660Z,19.67
2022-12-23T08:54:33.147Z,18.23
2022-12-23T08:57:01.238Z,19.73
2022-12-23T08:59:30.215Z,20.65
2022-12-23T09:01:59.783Z,18.38
2022-12-23T09:04:28.097Z,17.98
2022-12-23T09:06:56.220Z,19.30
2022-12-23T09:09:24.510Z,20.23
2022-12-23T09:11:54.156Z,19.58
2022-12-23T09:14:22.324Z,18.10
2022-12-23T09:16:52.537Z,19.20
2022-12-23T09:19:20.689Z,19.45
2022-12-23T09:21:49.164Z,19.83
2022-12-23T09:24:20.351Z,19.58
2022-12-23T09:26:48.467Z,18.45
2022-12-23T09:29:18.001Z,20.20
2022-12-23T09:31:46.113Z,19.75
2022-12-23T09:34:14.401Z,18.27
2022-12-23T09:36:42.470Z,18.00
2022-12-23T09:39:11.417Z,20.08
2022-12-23T09:42:01.404Z,17.88
2022-12-23T09:44:50.652Z,19.85
2022-12-23T09:47:23.069Z,19.05
2022-12-23T09:49:59.015Z,18.77
2022-12-23T09:52:37.524Z,17.92
2022-12-23T09:55:10.394Z,19.17
2022-12-23T09:57:46.169Z,19.10
2022-12-23T10:00:18.414Z,20.83
2022-12-23T10:03:00.941Z,24.58
2022-12-23T10:05:40.817Z,22.80
2022-12-23T10:08:13.689Z,20.73
2022-12-23T10:10:46.415Z,24.48
2022-12-23T10:13:25.608Z,21.65
2022-12-23T10:15:57.970Z,22.63
2022-12-23T10:18:34.537Z,30.77
2022-12-23T10:21:07.287Z,24.83
2022-12-23T10:23:39.237Z,23.92
2022-12-23T10:26:16.069Z,24.20
2022-12-23T10:28:44.176Z,23.70
2022-12-23T10:34:18.156Z,21.58
2022-12-23T10:36:54.152Z,20.42
2022-12-23T10:39:32.481Z,20.23
2022-12-23T10:42:13.541Z,22.63
2022-12-23T10:45:11.518Z,20.63
2022-12-23T10:47:51.545Z,28.65
2022-12-23T10:50:36.247Z,30.58
2022-12-23T10:53:11.295Z,24.17
2022-12-23T10:55:40.218Z,23.77
2022-12-23T10:58:15.539Z,27.38
2022-12-23T11:00:47.820Z,27.13
2022-12-23T11:03:23.373Z,23.95
2022-12-23T11:05:53.759Z,22.65
2022-12-23T11:08:23.830Z,21.33
2022-12-23T11:10:52.044Z,23.13
2022-12-23T11:13:35.635Z,24.05
2022-12-23T11:16:19.552Z,22.48
2022-12-23T11:19:01.121Z,23.55
2022-12-23T11:21:30.940Z,23.27
2022-12-23T11:24:09.877Z,20.98
2022-12-23T11:26:38.124Z,21.13
2022-12-23T11:29:11.354Z,23.50
2022-12-23T11:31:40.112Z,20.38
2022-12-23T11:34:17.632Z,23.38
2022-12-23T11:36:55.106Z,20.98
2022-12-23T11:39:27.744Z,20.30
2022-12-23T11:42:03.789Z,22.63
2022-12-23T11:44:36.060Z,23.73
2022-12-23T11:47:25.018Z,23.33
2022-12-23T11:49:57.347Z,19.92
2022-12-23T11:52:26.921Z,22.27
2022-12-23T11:54:57.030Z,20.83
2022-12-23T11:57:33.436Z,21.30
2022-12-23T12:00:05.792Z,22.55
2022-12-23T12:02:39.609Z,18.83
2022-12-23T12:05:22.604Z,21.17
2022-12-23T12:07:52.832Z,19.50
2022-12-23T12:10:26.616Z,19.83
2022-12-23T12:12:58.750Z,21.05
2022-12-23T12:15:37.717Z,21.15
2022-12-23T12:18:09.211Z,22.45
2022-12-23T12:20:42.229Z,19.65
2022-12-23T12:23:15.795Z,20.60
2022-12-23T12:25:48.674Z,18.13
2022-12-23T12:28:21.932Z,21.63
2022-12-23T12:33:27.813Z,20.75
2022-12-23T12:36:09.062Z,26.50
2022-12-23T12:38:39.534Z,19.58
2022-12-23T12:41:17.259Z,22.05
2022-12-23T12:43:52.106Z,19.52
2022-12-23T12:46:28.364Z,19.92
2022-12-23T12:49:03.143Z,20.48
2022-12-23T12:51:39.148Z,21.15
2022-12-23T12:54:16.855Z,21.02
2022-12-23T12:56:49.750Z,17.92
2022-12-23T12:59:20.822Z,22.45
2022-12-23T13:01:58.923Z,20.40
2022-12-23T13:04:57.277Z,19.17
2022-12-23T13:07:39.211Z,19.08
2022-12-23T13:10:18.798Z,21.10
2022-12-23T13:12:57.460Z,19.80
2022-12-23T13:15:34.199Z,19.08
2022-12-23T13:18:16.813Z,18.73
2022-12-23T13:20:53.399Z,19.30
2022-12-23T13:23:45.850Z,17.98
2022-12-23T13:26:27.884Z,18.55
2022-12-23T13:29:11.062Z,21.38
2022-12-23T13:31:50.300Z,20.70
2022-12-23T13:34:32.889Z,18.17
2022-12-23T13:37:14.465Z,20.60
2022-12-23T13:39:57.043Z,18.58
2022-12-23T13:42:32.301Z,18.45
2022-12-23T13:45:02.694Z,17.45
2022-12-23T13:47:45.651Z,18.85
2022-12-23T13:50:25.017Z,20.23
2022-12-23T13:53:11.038Z,18.92
2022-12-23T13:55:56.268Z,17.55
2022-12-23T13:58:27.034Z,18.17
2022-12-23T14:01:00.257Z,19.65
2022-12-23T14:03:35.571Z,18.90
2022-12-23T14:06:41.743Z,19.60
2022-12-23T14:09:15.559Z,18.75
2022-12-23T14:11:45.941Z,17.33
2022-12-23T14:14:22.596Z,20.05
2022-12-23T14:17:02.733Z,16.13
2022-12-23T14:19:47.396Z,18.60
2022-12-23T14:22:32.834Z,18.67
2022-12-23T14:25:44.532Z,19.83
2022-12-23T14:28:29.680Z,18.55
2022-12-23T14:30:57.944Z,19.92
2022-12-23T14:33:28.641Z,21.67
2022-12-23T14:35:59.060Z,17.73
2022-12-23T14:38:29.721Z,15.88
2022-12-23T14:41:24.758Z,17.77
2022-12-23T14:43:57.459Z,17.30
2022-12-23T14:46:56.328Z,19.58
2022-12-23T14:49:44.297Z,19.35
2022-12-23T14:52:44.302Z,17.98
2022-12-23T14:55:52.526Z,17.73
2022-12-23T14:58:49.382Z,17.95
2022-12-23T15:01:20.716Z,20.23
2022-12-23T15:03:57.603Z,19.58
2022-12-23T15:06:34.707Z,18.85
2022-12-23T15:09:03.994Z,19.55
2022-12-23T15:11:35.576Z,18.75
2022-12-23T15:14:08.921Z,18.90
2022-12-23T15:19:19.196Z,21.17
2022-12-23T15:21:55.672Z,18.15
2022-12-23T15:24:28.951Z,19.08
2022-12-23T15:27:25.513Z,19.00
2022-12-23T15:29:49.437Z,19.98
2022-12-23T15:32:22.292Z,19.98
2022-12-23T15:34:52.174Z,20.25
2022-12-23T15:37:27.677Z,20.13
2022-12-23T15:40:11.509Z,22.63
2022-12-23T15:42:47.311Z,19.52
2022-12-23T15:45:33.210Z,23.83
2022-12-23T15:48:03.610Z,28.25
2022-12-23T15:50:40.325Z,24.08
2022-12-23T15:53:11.690Z,25.73
2022-12-23T15:55:42.139Z,21.85
2022-12-23T15:58:19.090Z,25.70
2022-12-23T16:00:53.646Z,23.10
2022-12-23T16:03:31.479Z,30.23
2022-12-23T16:06:20.668Z,25.67
2022-12-23T16:08:58.762Z,32.13
2022-12-23T16:11:42.921Z,33.38
2022-12-23T16:14:33.557Z,27.83
2022-12-23T16:17:02.801Z,27.20
2022-12-23T16:19:40.571Z,30.85
2022-12-23T16:22:18.970Z,26.60
2022-12-23T16:24:49.298Z,27.63
2022-12-23T16:27:19.740Z,29.75
2022-12-23T16:29:52.235Z,28.75
2022-12-23T16:32:21.506Z,30.58
2022-12-23T16:34:52.393Z,28.25
2022-12-23T16:37:20.657Z,24.17
2022-12-23T16:39:51.063Z,24.98
2022-12-23T16:42:20.285Z,29.08
2022-12-23T16:44:48.429Z,27.55
2022-12-23T16:47:18.595Z,28.13
2022-12-23T16:49:56.902Z,27.52
2022-12-23T16:52:25.422Z,29.08
2022-12-23T16:54:53.564Z,29.20
2022-12-23T16:57:21.658Z,28.83
2022-12-23T16:59:52.120Z,24.00
2022-12-23T17:02:25.562Z,27.40
2022-12-23T17:04:53.740Z,28.63
2022-12-23T17:07:24.286Z,31.38
2022-12-23T17:09:54.771Z,30.80
2022-12-23T17:12:23.390Z,29.73
2022-12-23T17:14:51.556Z,29.55
2022-12-23T17:17:21.493Z,26.92
2022-12-23T17:19:50.118Z,31.05
2022-12-23T17:22:18.474Z,30.15
2022-12-23T17:24:47.950Z,26.90
2022-12-23T17:27:20.636Z,29.52
2022-12-23T17:29:51.063Z,28.52
2022-12-23T17:32:20.284Z,27.83
2022-12-23T17:34:48.497Z,29.92
2022-12-23T17:37:19.033Z,25.42
2022-12-23T17:39:49.049Z,30.48
2022-12-23T17:42:25.238Z,26.70
2022-12-23T17:44:53.992Z,24.45
2022-12-23T17:47:23.872Z,24.58
2022-12-23T17:49:52.924Z,26.88
2022-12-23T17:52:22.889Z,29.83
2022-12-23T17:54:52.761Z,26.38
2022-12-23T17:57:22.714Z,28.08
2022-12-23T17:59:52.555Z,25.75
2022-12-23T18:02:25.779Z,26.38
2022-12-23T18:04:54.948Z,22.10
2022-12-23T18:07:23.495Z,24.40
2022-12-23T18:09:56.365Z,35.92
2022-12-23T18:12:36.684Z,33.25
2022-12-23T18:15:07.198Z,35.42
2022-12-23T18:17:35.317Z,35.88
2022-12-23T18:20:07.962Z,35.10
2022-12-23T18:22:36.266Z,30.00
2022-12-23T18:25:06.419Z,35.63
2022-12-23T18:27:34.775Z,32.80
2022-12-23T18:30:08.540Z,33.40
2022-12-23T18:32:36.850Z,30.70
2022-12-23T18:35:17.999Z,34.60
2022-12-23T18:37:46.269Z,31.77
2022-12-23T18:40:16.145Z,28.80
2022-12-23T18:42:44.449Z,28.92
2022-12-23T18:45:24.750Z,30.30
2022-12-23T18:47:53.065Z,27.38
2022-12-23T18:50:21.873Z,26.23
2022-12-23T18:52:50.395Z,27.27
2022-12-23T18:55:20.180Z,29.60
2022-12-23T18:57:48.887Z,24.35
2022-12-23T19:00:19.339Z,31.38
2022-12-23T19:02:48.064Z,26.63
2022-12-23T19:05:19.413Z,23.42
2022-12-23T19:07:49.471Z,25.90
2022-12-23T19:10:22.589Z,26.60
2022-12-23T19:12:51.102Z,24.35
2022-12-23T19:15:19.437Z,24.63
2022-12-23T19:17:47.714Z,25.70
2022-12-23T19:20:18.153Z,26.15
2022-12-23T19:22:48.993Z,23.17
2022-12-23T19:25:19.844Z,24.13
2022-12-23T19:27:48.050Z,24.80
2022-12-23T19:30:19.418Z,23.20
2022-12-23T19:32:50.010Z,24.05
2022-12-23T19:35:18.467Z,23.48
2022-12-23T19:37:46.673Z,23.27
2022-12-23T19:40:16.849Z,23.75
2022-12-23T19:42:46.399Z,22.95
2022-12-23T19:45:14.696Z,21.17
2022-12-23T19:47:42.864Z,20.77
2022-12-23T19:50:15.060Z,20.52
2022-12-23T19:52:43.219Z,20.77
2022-12-23T19:55:12.859Z,20.73
2022-12-23T19:57:41.071Z,21.00
2022-12-23T20:00:12.435Z,20.38
2022-12-23T20:02:40.737Z,21.88
2022-12-23T20:05:10.543Z,22.00
2022-12-23T20:07:39.003Z,20.40
2022-12-23T20:10:08.823Z,19.63
2022-12-23T20:12:37.323Z,20.38
2022-12-23T20:15:05.969Z,21.77
2022-12-23T20:17:35.492Z,21.90
2022-12-23T20:20:03.646Z,19.50
2022-12-23T20:22:31.842Z,21.90
2022-12-23T20:25:00.164Z,20.20
2022-12-23T20:27:28.524Z,19.27
2022-12-23T20:29:57.054Z,20.80
2022-12-23T20:32:25.253Z,20.52
2022-12-23T20:34:54.886Z,20.58
2022-12-23T20:37:23.007Z,21.52
2022-12-23T20:39:53.779Z,17.80
2022-12-23T20:42:22.091Z,18.25
2022-12-23T20:44:50.838Z,20.08
2022-12-23T20:47:19.034Z,18.83
2022-12-23T20:49:47.321Z,19.48
2022-12-23T20:52:16.735Z,19.70
2022-12-23T20:54:44.789Z,19.42
2022-12-23T20:57:12.909Z,19.85
2022-12-23T20:59:42.489Z,18.48
2022-12-23T21:02:13.216Z,20.60
2022-12-23T21:04:41.731Z,17.63
2022-12-23T21:07:10.360Z,19.48
2022-12-23T21:09:39.878Z,17.52
2022-12-23T21:12:08.264Z,17.73
2022-12-23T21:14:37.176Z,17.35
2022-12-23T21:17:05.281Z,18.23
2022-12-23T21:19:34.806Z,17.77
2022-12-23T21:22:03.278Z,19.75
2022-12-23T21:24:31.397Z,17.30
2022-12-23T21:27:00.860Z,16.27
2022-12-23T21:29:29.270Z,19.13
2022-12-23T21:31:57.456Z,19.00
2022-12-23T21:34:25.776Z,19.50
2022-12-23T21:36:54.054Z,17.40
2022-12-23T21:39:22.143Z,17.98
2022-12-23T21:41:51.577Z,17.83
2022-12-23T21:44:21.233Z,16.02
2022-12-23T21:46:51.053Z,17.67
2022-12-23T21:49:20.105Z,15.63
2022-12-23T21:51:48.172Z,17.83
2022-12-23T21:54:16.333Z,17.15
2022-12-23T21:56:44.537Z,16.58
2022-12-23T21:59:15.281Z,15.55
2022-12-23T22:01:45.180Z,16.05
2022-12-23T22:04:13.605Z,15.63
2022-12-23T22:06:44.628Z,16.42
2022-12-23T22:09:15.423Z,15.18
2022-12-23T22:11:43.757Z,14.15
2022-12-23T22:14:14.196Z,16.40
2022-12-23T22:16:42.453Z,13.77
2022-12-23T22:19:13.072Z,14.10
2022-12-23T22:21:42.562Z,16.90
2022-12-23T22:24:11.211Z,14.65
2022-12-23T22:26:40.667Z,16.67
2022-12-23T22:29:08.997Z,15.25
2022-12-23T22:31:40.603Z,15.32
2022-12-23T22:34:13.495Z,16.60
2022-12-23T22:36:41.766Z,16.23
2022-12-23T22:39:17.624Z,13.88
2022-12-23T22:41:49.886Z,16.10
2022-12-23T22:44:18.276Z,14.70
2022-12-23T22:46:46.648Z,15.93
2022-12-23T22:49:16.825Z,14.50
2022-12-23T22:51:45.971Z,14.65
2022-12-23T22:54:14.395Z,16.30
2022-12-23T22:56:42.610Z,14.75
2022-12-23T22:59:22.070Z,15.07
2022-12-23T23:01:51.150Z,15.15
2022-12-23T23:04:20.929Z,16.02
2022-12-23T23:06:49.206Z,14.65
2022-12-23T23:09:19.846Z,15.65
2022-12-23T23:11:48.369Z,15.68
2022-12-23T23:14:18.655Z,15.48
2022-12-23T23:16:46.877Z,16.48
2022-12-23T23:19:16.457Z,16.48
2022-12-23T23:21:45.922Z,15.52
2022-12-23T23:24:14.244Z,15.00
2022-12-23T23:26:42.348Z,15.35
2022-12-23T23:29:10.445Z,15.73
2022-12-23T23:31:43.167Z,16.27
2022-12-23T23:34:11.932Z,15.68
2022-12-23T23:36:40.488Z,15.07
2022-12-23T23:39:12.134Z,14.57
2022-12-23T23:41:40.952Z,15.40
2022-12-23T23:44:09.422Z,14.65
2022-12-23T23:46:37.582Z,14.57
2022-12-23T23:49:05.951Z,15.68
2022-12-23T23:51:34.108Z,15.23
2022-12-23T23:54:02.645Z,13.95
2022-12-23T23:56:38.596Z,14.65
2022-12-23T23:59:08.438Z,14.68
